sensor_id;sensor_type;location;lat;lon;timestamp;pressure;altitude;pressure_sealevel;temperature;humidity
11314;BME280;5712;48.858;9.206;2023-01-30T00:01:02;98862.78;;;-2.78;100.00
11314;BME280;5712;48.858;9.206;2023-01-30T00:03:29;98859.38;;;-2.80;100.00
11314;BME280;5712;48.858;9.206;2023-01-30T00:05:56;98846.44;;;-2.83;100.00
11314;BME280;5712;48.858;9.206;2023-01-30T00:08:22;98834.38;;;-2.81;100.00
11314;BME280;5712;48.858;9.206;2023-01-30T00:10:49;98824.91;;;-2.85;100.00
11314;BME280;5712;48.858;9.206;2023-01-30T00:13:16;98823.16;;;-2.83;100.00
11314;BME280;5712;48.858;9.206;2023-01-30T00:15:42;98819.69;;;-2.76;100.00
11314;BME280;5712;48.858;9.206;2023-01-30T00:18:10;98830.00;;;-2.75;100.00
11314;BME280;5712;48.858;9.206;2023-01-30T00:20:37;98825.72;;;-2.74;100.00
11314;BME280;5712;48.858;9.206;2023-01-30T00:23:03;98829.22;;;-2.81;100.00
11314;BME280;5712;48.858;9.206;2023-01-30T00:25:30;98836.09;;;-2.79;100.00
11314;BME280;5712;48.858;9.206;2023-01-30T00:27:58;98819.75;;;-2.90;100.00
11314;BME280;5712;48.858;9.206;2023-01-30T00:30:25;98818.97;;;-2.99;100.00
11314;BME280;5712;48.858;9.206;2023-01-30T00:32:53;98816.34;;;-2.92;100.00
11314;BME280;5712;48.858;9.206;2023-01-30T00:35:21;98810.38;;;-3.03;100.00
11314;BME280;5712;48.858;9.206;2023-01-30T00:37:53;98812.94;;;-3.01;100.00
11314;BME280;5712;48.858;9.206;2023-01-30T00:40:20;98806.06;;;-3.05;100.00
11314;BME280;5712;48.858;9.206;2023-01-30T00:42:46;98804.34;;;-3.06;100.00
11314;BME280;5712;48.858;9.206;2023-01-30T00:45:30;98817.28;;;-3.09;100.00
11314;BME280;5712;48.858;9.206;2023-01-30T00:48:14;98829.34;;;-3.05;100.00
11314;BME280;5712;48.858;9.206;2023-01-30T00:50:42;98834.47;;;-3.02;100.00
11314;BME280;5712;48.858;9.206;2023-01-30T00:53:09;98840.53;;;-3.09;100.00
11314;BME280;5712;48.858;9.206;2023-01-30T00:55:36;98849.16;;;-3.12;100.00
11314;BME280;5712;48.858;9.206;2023-01-30T00:58:03;98856.94;;;-3.07;100.00
11314;BME280;5712;48.858;9.206;2023-01-30T01:00:30;98869.78;;;-2.94;100.00
11314;BME280;5712;48.858;9.206;2023-01-30T01:02:56;98886.09;;;-2.84;100.00
11314;BME280;5712;48.858;9.206;2023-01-30T01:05:23;98886.91;;;-2.70;100.00
11314;BME280;5712;48.858;9.206;2023-01-30T01:07:51;98880.88;;;-2.72;100.00
11314;BME280;5712;48.858;9.206;2023-01-30T01:10:17;98868.81;;;-2.73;100.00
11314;BME280;5712;48.858;9.206;2023-01-30T01:12:44;98867.94;;;-2.68;100.00
11314;BME280;5712;48.858;9.206;2023-01-30T01:15:11;98880.81;;;-2.57;100.00
11314;BME280;5712;48.858;9.206;2023-01-30T01:17:38;98870.41;;;-2.54;100.00
11314;BME280;5712;48.858;9.206;2023-01-30T01:20:06;98874.72;;;-2.53;100.00
11314;BME280;5712;48.858;9.206;2023-01-30T01:22:33;98872.97;;;-2.50;100.00
11314;BME280;5712;48.858;9.206;2023-01-30T01:25:01;98869.50;;;-2.46;100.00
11314;BME280;5712;48.858;9.206;2023-01-30T01:27:27;98878.97;;;-2.43;100.00
11314;BME280;5712;48.858;9.206;2023-01-30T01:29:54;98892.75;;;-2.38;100.00
11314;BME280;5712;48.858;9.206;2023-01-30T01:32:21;98901.41;;;-2.39;100.00
11314;BME280;5712;48.858;9.206;2023-01-30T01:34:47;98897.91;;;-2.35;100.00
11314;BME280;5712;48.858;9.206;2023-01-30T01:37:14;98886.72;;;-2.36;100.00
11314;BME280;5712;48.858;9.206;2023-01-30T01:39:40;98878.91;;;-2.28;100.00
11314;BME280;5712;48.858;9.206;2023-01-30T01:42:29;98884.88;;;-2.23;100.00
11314;BME280;5712;48.858;9.206;2023-01-30T01:45:03;98881.50;;;-2.31;100.00
11314;BME280;5712;48.858;9.206;2023-01-30T01:47:38;98878.81;;;-2.22;100.00
11314;BME280;5712;48.858;9.206;2023-01-30T01:50:09;98881.44;;;-2.24;100.00
11314;BME280;5712;48.858;9.206;2023-01-30T01:52:39;98876.25;;;-2.22;100.00
11314;BME280;5712;48.858;9.206;2023-01-30T01:55:06;98858.16;;;-2.25;100.00
11314;BME280;5712;48.858;9.206;2023-01-30T01:57:36;98867.63;;;-2.23;100.00
11314;BME280;5712;48.858;9.206;2023-01-30T02:00:06;98873.66;;;-2.22;100.00
11314;BME280;5712;48.858;9.206;2023-01-30T02:02:37;98886.59;;;-2.21;100.00
11314;BME280;5712;48.858;9.206;2023-01-30T02:05:05;98878.78;;;-2.16;100.00
11314;BME280;5712;48.858;9.206;2023-01-30T02:07:37;98881.38;;;-2.15;100.00
11314;BME280;5712;48.858;9.206;2023-01-30T02:10:06;98879.59;;;-2.07;100.00
11314;BME280;5712;48.858;9.206;2023-01-30T02:12:35;98861.44;;;-2.02;100.00
11314;BME280;5712;48.858;9.206;2023-01-30T02:15:04;98857.06;;;-1.99;100.00
11314;BME280;5712;48.858;9.206;2023-01-30T02:17:31;98850.19;;;-2.03;100.00
11314;BME280;5712;48.858;9.206;2023-01-30T02:20:02;98837.28;;;-2.07;100.00
11314;BME280;5712;48.858;9.206;2023-01-30T02:25:53;98839.25;;;-2.36;100.00
11314;BME280;5712;48.858;9.206;2023-01-30T02:28:39;98823.81;;;-2.48;100.00
11314;BME280;5712;48.858;9.206;2023-01-30T02:31:19;98835.91;;;-2.53;100.00
11314;BME280;5712;48.858;9.206;2023-01-30T02:33:56;98837.69;;;-2.58;100.00
11314;BME280;5712;48.858;9.206;2023-01-30T02:36:32;98848.91;;;-2.61;100.00
11314;BME280;5712;48.858;9.206;2023-01-30T02:39:12;98819.53;;;-2.57;100.00
11314;BME280;5712;48.858;9.206;2023-01-30T02:41:49;98789.41;;;-2.64;100.00
11314;BME280;5712;48.858;9.206;2023-01-30T02:44:24;98784.25;;;-2.62;100.00
11314;BME280;5712;48.858;9.206;2023-01-30T02:46:55;98797.19;;;-2.62;100.00
11314;BME280;5712;48.858;9.206;2023-01-30T02:49:28;98807.47;;;-2.55;100.00
11314;BME280;5712;48.858;9.206;2023-01-30T02:51:56;98815.25;;;-2.59;100.00
11314;BME280;5712;48.858;9.206;2023-01-30T02:54:24;98808.38;;;-2.60;100.00
11314;BME280;5712;48.858;9.206;2023-01-30T02:56:52;98779.06;;;-2.62;100.00
11314;BME280;5712;48.858;9.206;2023-01-30T02:59:21;98786.81;;;-2.61;100.00
11314;BME280;5712;48.858;9.206;2023-01-30T03:05:18;98801.38;;;-2.46;100.00
11314;BME280;5712;48.858;9.206;2023-01-30T03:07:49;98787.53;;;-2.39;100.00
11314;BME280;5712;48.858;9.206;2023-01-30T03:10:26;98764.19;;;-2.35;100.00
11314;BME280;5712;48.858;9.206;2023-01-30T03:13:01;98769.25;;;-2.26;100.00
11314;BME280;5712;48.858;9.206;2023-01-30T03:15:33;98726.94;;;-2.20;100.00
11314;BME280;5712;48.858;9.206;2023-01-30T03:18:02;98714.75;;;-2.12;100.00
11314;BME280;5712;48.858;9.206;2023-01-30T03:20:35;98696.56;;;-2.05;100.00
11314;BME280;5712;48.858;9.206;2023-01-30T03:23:02;98675.72;;;-1.93;100.00
11314;BME280;5712;48.858;9.206;2023-01-30T03:25:28;98662.69;;;-1.85;100.00
11314;BME280;5712;48.858;9.206;2023-01-30T03:27:56;98637.47;;;-1.74;100.00
11314;BME280;5712;48.858;9.206;2023-01-30T03:30:25;98646.94;;;-1.69;100.00
11314;BME280;5712;48.858;9.206;2023-01-30T03:32:52;98659.81;;;-1.63;100.00
11314;BME280;5712;48.858;9.206;2023-01-30T03:35:18;98663.13;;;-1.55;100.00
11314;BME280;5712;48.858;9.206;2023-01-30T03:37:46;98661.34;;;-1.48;100.00
11314;BME280;5712;48.858;9.206;2023-01-30T03:40:15;98676.75;;;-1.39;100.00
11314;BME280;5712;48.858;9.206;2023-01-30T03:42:42;98674.97;;;-1.34;100.00
11314;BME280;5712;48.858;9.206;2023-01-30T03:45:09;98685.25;;;-1.28;100.00
11314;BME280;5712;48.858;9.206;2023-01-30T03:47:36;98682.59;;;-1.25;100.00
11314;BME280;5712;48.858;9.206;2023-01-30T03:50:03;98679.06;;;-1.20;100.00
11314;BME280;5712;48.858;9.206;2023-01-30T03:52:30;98665.06;;;-1.10;100.00
11314;BME280;5712;48.858;9.206;2023-01-30T03:55:00;98665.13;;;-1.11;100.00
11314;BME280;5712;48.858;9.206;2023-01-30T03:57:27;98664.06;;;-1.00;100.00
11314;BME280;5712;48.858;9.206;2023-01-30T03:59:53;98659.69;;;-0.96;100.00
11314;BME280;5712;48.858;9.206;2023-01-30T04:02:20;98657.91;;;-0.94;100.00
11314;BME280;5712;48.858;9.206;2023-01-30T04:04:47;98663.00;;;-0.88;100.00
11314;BME280;5712;48.858;9.206;2023-01-30T04:07:14;98668.16;;;-0.85;100.00
11314;BME280;5712;48.858;9.206;2023-01-30T04:09:40;98669.78;;;-0.78;100.00
11314;BME280;5712;48.858;9.206;2023-01-30T04:12:08;98653.25;;;-0.73;100.00
11314;BME280;5712;48.858;9.206;2023-01-30T04:14:35;98649.69;;;-0.67;100.00
11314;BME280;5712;48.858;9.206;2023-01-30T04:17:01;98655.72;;;-0.65;100.00
11314;BME280;5712;48.858;9.206;2023-01-30T04:19:28;98647.84;;;-0.61;100.00
11314;BME280;5712;48.858;9.206;2023-01-30T04:21:54;98640.84;;;-0.56;100.00
11314;BME280;5712;48.858;9.206;2023-01-30T04:24:21;98640.78;;;-0.51;100.00
11314;BME280;5712;48.858;9.206;2023-01-30T04:26:47;98643.31;;;-0.48;100.00
11314;BME280;5712;48.858;9.206;2023-01-30T04:29:15;98649.38;;;-0.49;100.00
11314;BME280;5712;48.858;9.206;2023-01-30T04:31:41;98642.31;;;-0.43;100.00
11314;BME280;5712;48.858;9.206;2023-01-30T04:34:08;98640.59;;;-0.41;100.00
11314;BME280;5712;48.858;9.206;2023-01-30T04:36:34;98644.78;;;-0.35;100.00
11314;BME280;5712;48.858;9.206;2023-01-30T04:39:01;98642.09;;;-0.31;100.00
11314;BME280;5712;48.858;9.206;2023-01-30T04:41:28;98639.47;;;-0.28;100.00
11314;BME280;5712;48.858;9.206;2023-01-30T04:43:54;98636.84;;;-0.26;100.00
11314;BME280;5712;48.858;9.206;2023-01-30T04:46:22;98642.09;;;-0.29;99.03
11314;BME280;5712;48.858;9.206;2023-01-30T04:48:49;98636.78;;;-0.25;99.21
11314;BME280;5712;48.858;9.206;2023-01-30T05:32:02;98628.34;;;0.09;95.48
11314;BME280;5712;48.858;9.206;2023-01-30T05:34:29;98631.69;;;0.14;95.45
11314;BME280;5712;48.858;9.206;2023-01-30T05:36:55;98621.25;;;0.17;95.01
11314;BME280;5712;48.858;9.206;2023-01-30T05:39:22;98608.13;;;0.23;94.89
11314;BME280;5712;48.858;9.206;2023-01-30T05:41:48;98600.19;;;0.29;94.54
11314;BME280;5712;48.858;9.206;2023-01-30T05:44:15;98605.31;;;0.32;94.45
11314;BME280;5712;48.858;9.206;2023-01-30T05:46:41;98612.16;;;0.36;93.02
11314;BME280;5712;48.858;9.206;2023-01-30T05:49:09;98619.94;;;0.38;93.09
11314;BME280;5712;48.858;9.206;2023-01-30T05:51:35;98631.25;;;0.35;94.18
11314;BME280;5712;48.858;9.206;2023-01-30T05:54:02;98634.66;;;0.37;94.37
11314;BME280;5712;48.858;9.206;2023-01-30T05:56:28;98632.03;;;0.39;94.56
11314;BME280;5712;48.858;9.206;2023-01-30T05:58:58;98619.69;;;0.48;94.97
11314;BME280;5712;48.858;9.206;2023-01-30T06:01:25;98615.41;;;0.47;94.25
11314;BME280;5712;48.858;9.206;2023-01-30T06:03:52;98610.34;;;0.41;94.37
11314;BME280;5712;48.858;9.206;2023-01-30T06:06:21;98602.41;;;0.47;94.56
11314;BME280;5712;48.858;9.206;2023-01-30T06:08:52;98597.13;;;0.50;92.90
11314;BME280;5712;48.858;9.206;2023-01-30T06:11:18;98604.06;;;0.50;91.96
11314;BME280;5712;48.858;9.206;2023-01-30T06:13:45;98592.94;;;0.43;89.80
11314;BME280;5712;48.858;9.206;2023-01-30T06:16:13;98588.47;;;0.50;89.46
11314;BME280;5712;48.858;9.206;2023-01-30T06:18:40;98571.97;;;0.52;88.77
11314;BME280;5712;48.858;9.206;2023-01-30T06:21:08;98575.50;;;0.48;88.81
11314;BME280;5712;48.858;9.206;2023-01-30T06:23:36;98577.06;;;0.55;88.36
11314;BME280;5712;48.858;9.206;2023-01-30T06:26:03;98558.91;;;0.54;88.51
11314;BME280;5712;48.858;9.206;2023-01-30T06:28:29;98562.50;;;0.48;87.94
11314;BME280;5712;48.858;9.206;2023-01-30T06:30:56;98570.34;;;0.45;88.50
11314;BME280;5712;48.858;9.206;2023-01-30T06:33:22;98572.00;;;0.49;88.36
11314;BME280;5712;48.858;9.206;2023-01-30T06:35:50;98549.38;;;0.53;88.92
11314;BME280;5712;48.858;9.206;2023-01-30T06:38:17;98541.69;;;0.48;88.78
11314;BME280;5712;48.858;9.206;2023-01-30T06:40:47;98554.53;;;0.56;88.96
11314;BME280;5712;48.858;9.206;2023-01-30T06:43:14;98550.16;;;0.56;88.79
11314;BME280;5712;48.858;9.206;2023-01-30T06:45:41;98565.75;;;0.58;88.84
11314;BME280;5712;48.858;9.206;2023-01-30T06:48:08;98572.63;;;0.60;89.10
11314;BME280;5712;48.858;9.206;2023-01-30T06:50:35;98562.09;;;0.65;89.04
11314;BME280;5712;48.858;9.206;2023-01-30T06:53:03;98568.09;;;0.68;88.95
11314;BME280;5712;48.858;9.206;2023-01-30T06:55:31;98569.78;;;0.69;89.41
11314;BME280;5712;48.858;9.206;2023-01-30T06:58:02;98573.94;;;0.78;88.52
11314;BME280;5712;48.858;9.206;2023-01-30T07:00:30;98568.72;;;0.78;88.46
11314;BME280;5712;48.858;9.206;2023-01-30T07:02:56;98573.09;;;0.77;87.85
11314;BME280;5712;48.858;9.206;2023-01-30T07:05:23;98571.38;;;0.76;88.18
11314;BME280;5712;48.858;9.206;2023-01-30T07:07:50;98571.31;;;0.79;89.05
11314;BME280;5712;48.858;9.206;2023-01-30T07:10:17;98577.38;;;0.80;89.51
11314;BME280;5712;48.858;9.206;2023-01-30T07:12:44;98581.72;;;0.79;89.82
11314;BME280;5712;48.858;9.206;2023-01-30T07:15:12;98572.81;;;0.88;89.53
11314;BME280;5712;48.858;9.206;2023-01-30T07:17:39;98591.06;;;0.86;89.38
11314;BME280;5712;48.858;9.206;2023-01-30T07:20:07;98616.00;;;0.96;89.53
11314;BME280;5712;48.858;9.206;2023-01-30T07:22:34;98606.38;;;1.00;88.76
11314;BME280;5712;48.858;9.206;2023-01-30T07:25:00;98610.78;;;0.96;88.90
11314;BME280;5712;48.858;9.206;2023-01-30T07:27:27;98606.38;;;1.00;89.47
11314;BME280;5712;48.858;9.206;2023-01-30T07:30:19;98612.50;;;0.97;89.83
11314;BME280;5712;48.858;9.206;2023-01-30T07:32:49;98598.53;;;1.01;89.35
11314;BME280;5712;48.858;9.206;2023-01-30T07:37:08;98603.66;;;1.04;89.79
11314;BME280;5712;48.858;9.206;2023-01-30T07:38:57;98609.66;;;1.06;90.06
11314;BME280;5712;48.858;9.206;2023-01-30T07:44:02;98627.72;;;1.12;90.20
11314;BME280;5712;48.858;9.206;2023-01-30T07:46:30;98629.41;;;1.15;89.96
11314;BME280;5712;48.858;9.206;2023-01-30T07:48:59;98633.00;;;1.11;89.86
11314;BME280;5712;48.858;9.206;2023-01-30T07:51:25;98637.38;;;1.09;90.53
11314;BME280;5712;48.858;9.206;2023-01-30T07:53:52;98628.53;;;1.16;90.69
11314;BME280;5712;48.858;9.206;2023-01-30T07:56:19;98626.75;;;1.18;90.88
11314;BME280;5712;48.858;9.206;2023-01-30T07:58:47;98617.13;;;1.21;90.40
11314;BME280;5712;48.858;9.206;2023-01-30T08:01:14;98606.53;;;1.27;90.36
11314;BME280;5712;48.858;9.206;2023-01-30T08:03:42;98603.03;;;1.28;90.19
11314;BME280;5712;48.858;9.206;2023-01-30T08:06:10;98606.44;;;1.30;90.89
11314;BME280;5712;48.858;9.206;2023-01-30T08:08:38;98611.59;;;1.33;92.71
11314;BME280;5712;48.858;9.206;2023-01-30T08:11:05;98620.06;;;1.41;92.88
11314;BME280;5712;48.858;9.206;2023-01-30T08:13:31;98635.69;;;1.41;93.88
11314;BME280;5712;48.858;9.206;2023-01-30T08:15:58;98644.41;;;1.40;93.83
11314;BME280;5712;48.858;9.206;2023-01-30T08:18:24;98658.31;;;1.39;94.94
11314;BME280;5712;48.858;9.206;2023-01-30T08:20:55;98639.19;;;1.40;96.33
11314;BME280;5712;48.858;9.206;2023-01-30T08:23:22;98615.88;;;1.36;97.33
11314;BME280;5712;48.858;9.206;2023-01-30T08:25:48;98609.81;;;1.35;97.71
11314;BME280;5712;48.858;9.206;2023-01-30T08:28:15;98606.38;;;1.33;98.00
11314;BME280;5712;48.858;9.206;2023-01-30T08:30:42;98594.34;;;1.29;98.91
11314;BME280;5712;48.858;9.206;2023-01-30T08:33:08;98569.69;;;1.42;98.54
11314;BME280;5712;48.858;9.206;2023-01-30T08:35:35;98562.38;;;1.56;99.04
11314;BME280;5712;48.858;9.206;2023-01-30T08:38:06;98560.06;;;1.76;98.15
11314;BME280;5712;48.858;9.206;2023-01-30T08:40:33;98579.06;;;1.81;98.26
11314;BME280;5712;48.858;9.206;2023-01-30T08:42:59;98585.69;;;1.91;97.86
11314;BME280;5712;48.858;9.206;2023-01-30T08:45:26;98571.63;;;1.98;97.50
11314;BME280;5712;48.858;9.206;2023-01-30T08:47:57;98571.44;;;2.04;96.75
11314;BME280;5712;48.858;9.206;2023-01-30T08:50:23;98580.81;;;2.11;96.09
11314;BME280;5712;48.858;9.206;2023-01-30T08:52:50;98557.16;;;2.17;95.37
11314;BME280;5712;48.858;9.206;2023-01-30T08:55:18;98555.06;;;2.28;94.55
11314;BME280;5712;48.858;9.206;2023-01-30T08:57:45;98551.41;;;2.35;94.17
11314;BME280;5712;48.858;9.206;2023-01-30T09:00:13;98529.53;;;2.39;92.83
11314;BME280;5712;48.858;9.206;2023-01-30T09:02:40;98531.56;;;2.57;92.85
11314;BME280;5712;48.858;9.206;2023-01-30T09:05:07;98508.72;;;2.65;91.84
11314;BME280;5712;48.858;9.206;2023-01-30T09:07:35;98494.03;;;2.61;90.53
11314;BME280;5712;48.858;9.206;2023-01-30T09:10:01;98493.72;;;2.70;89.71
11314;BME280;5712;48.858;9.206;2023-01-30T09:12:29;98505.75;;;2.76;89.24
11314;BME280;5712;48.858;9.206;2023-01-30T09:14:56;98503.56;;;2.62;89.63
11314;BME280;5712;48.858;9.206;2023-01-30T09:17:24;98508.91;;;2.59;89.64
11314;BME280;5712;48.858;9.206;2023-01-30T09:19:51;98510.50;;;2.63;89.88
11314;BME280;5712;48.858;9.206;2023-01-30T09:22:17;98516.66;;;2.61;90.49
11314;BME280;5712;48.858;9.206;2023-01-30T09:24:44;98515.97;;;2.56;90.06
11314;BME280;5712;48.858;9.206;2023-01-30T09:27:11;98512.50;;;2.55;90.66
11314;BME280;5712;48.858;9.206;2023-01-30T09:29:38;98517.72;;;2.55;91.00
11314;BME280;5712;48.858;9.206;2023-01-30T09:32:05;98519.41;;;2.56;91.39
11314;BME280;5712;48.858;9.206;2023-01-30T09:34:33;98515.97;;;2.56;92.34
11314;BME280;5712;48.858;9.206;2023-01-30T09:37:00;98524.38;;;2.65;93.46
11314;BME280;5712;48.858;9.206;2023-01-30T09:39:27;98522.56;;;2.67;95.21
11314;BME280;5712;48.858;9.206;2023-01-30T09:42:14;98506.50;;;2.79;94.68
11314;BME280;5712;48.858;9.206;2023-01-30T09:45:15;98507.09;;;2.87;94.59
11314;BME280;5712;48.858;9.206;2023-01-30T09:47:57;98498.47;;;2.85;94.38
11314;BME280;5712;48.858;9.206;2023-01-30T09:50:39;98506.31;;;2.85;94.57
11314;BME280;5712;48.858;9.206;2023-01-30T09:53:13;98503.53;;;2.90;94.11
11314;BME280;5712;48.858;9.206;2023-01-30T09:55:44;98492.13;;;2.92;94.24
11314;BME280;5712;48.858;9.206;2023-01-30T09:58:16;98485.06;;;2.96;94.30
11314;BME280;5712;48.858;9.206;2023-01-30T10:00:45;98465.81;;;2.98;93.80
11314;BME280;5712;48.858;9.206;2023-01-30T10:03:15;98478.84;;;3.00;93.68
11314;BME280;5712;48.858;9.206;2023-01-30T10:05:46;98481.06;;;3.10;93.21
11314;BME280;5712;48.858;9.206;2023-01-30T10:08:25;98485.00;;;3.22;93.00
11314;BME280;5712;48.858;9.206;2023-01-30T10:11:02;98466.00;;;3.18;92.34
11314;BME280;5712;48.858;9.206;2023-01-30T10:13:42;98464.19;;;3.20;92.45
11314;BME280;5712;48.858;9.206;2023-01-30T10:16:15;98452.84;;;3.21;92.26
11314;BME280;5712;48.858;9.206;2023-01-30T10:19:03;98454.63;;;3.19;92.06
11314;BME280;5712;48.858;9.206;2023-01-30T10:21:42;98456.28;;;3.22;92.62
11314;BME280;5712;48.858;9.206;2023-01-30T10:24:21;98463.16;;;3.24;92.32
11314;BME280;5712;48.858;9.206;2023-01-30T10:26:50;98458.06;;;3.21;92.14
11314;BME280;5712;48.858;9.206;2023-01-30T10:29:20;98459.81;;;3.21;92.59
11314;BME280;5712;48.858;9.206;2023-01-30T10:31:53;98455.28;;;3.26;91.99
11314;BME280;5712;48.858;9.206;2023-01-30T10:34:25;98456.03;;;3.29;92.45
11314;BME280;5712;48.858;9.206;2023-01-30T10:36:58;98460.47;;;3.27;92.52
11314;BME280;5712;48.858;9.206;2023-01-30T10:39:33;98470.00;;;3.28;92.11
11314;BME280;5712;48.858;9.206;2023-01-30T10:42:08;98461.25;;;3.29;92.35
11314;BME280;5712;48.858;9.206;2023-01-30T10:44:37;98449.16;;;3.27;91.90
11314;BME280;5712;48.858;9.206;2023-01-30T10:47:30;98445.75;;;3.25;91.52
11314;BME280;5712;48.858;9.206;2023-01-30T10:50:10;98445.78;;;3.23;92.21
11314;BME280;5712;48.858;9.206;2023-01-30T10:52:55;98442.91;;;3.31;92.52
11314;BME280;5712;48.858;9.206;2023-01-30T10:55:30;98449.09;;;3.28;93.46
11314;BME280;5712;48.858;9.206;2023-01-30T10:58:04;98455.84;;;3.34;93.30
11314;BME280;5712;48.858;9.206;2023-01-30T11:00:35;98448.66;;;3.40;93.88
11314;BME280;5712;48.858;9.206;2023-01-30T11:03:16;98455.38;;;3.47;94.77
11314;BME280;5712;48.858;9.206;2023-01-30T11:05:47;98462.50;;;3.42;95.90
11314;BME280;5712;48.858;9.206;2023-01-30T11:08:21;98462.28;;;3.48;96.44
11314;BME280;5712;48.858;9.206;2023-01-30T11:10:48;98470.31;;;3.44;96.97
11314;BME280;5712;48.858;9.206;2023-01-30T11:13:17;98472.06;;;3.43;97.32
11314;BME280;5712;48.858;9.206;2023-01-30T11:15:46;98476.41;;;3.44;97.69
11314;BME280;5712;48.858;9.206;2023-01-30T11:18:15;98465.72;;;3.50;98.23
11314;BME280;5712;48.858;9.206;2023-01-30T11:20:45;98464.00;;;3.49;98.21
11314;BME280;5712;48.858;9.206;2023-01-30T11:23:24;98458.84;;;3.48;98.39
11314;BME280;5712;48.858;9.206;2023-01-30T11:25:54;98455.38;;;3.47;99.20
11314;BME280;5712;48.858;9.206;2023-01-30T11:28:21;98447.50;;;3.49;99.13
11314;BME280;5712;48.858;9.206;2023-01-30T11:30:52;98456.06;;;3.52;99.19
11314;BME280;5712;48.858;9.206;2023-01-30T11:33:23;98459.38;;;3.57;99.54
11314;BME280;5712;48.858;9.206;2023-01-30T11:35:58;98462.81;;;3.58;100.00
11314;BME280;5712;48.858;9.206;2023-01-30T11:38:27;98467.13;;;3.59;99.99
11314;BME280;5712;48.858;9.206;2023-01-30T11:41:05;98456.84;;;3.54;100.00
11314;BME280;5712;48.858;9.206;2023-01-30T11:43:33;98478.88;;;3.47;100.00
11314;BME280;5712;48.858;9.206;2023-01-30T11:46:00;98478.78;;;3.50;100.00
11314;BME280;5712;48.858;9.206;2023-01-30T11:48:30;98484.06;;;3.49;100.00
11314;BME280;5712;48.858;9.206;2023-01-30T11:50:59;98485.19;;;3.42;100.00
11314;BME280;5712;48.858;9.206;2023-01-30T11:53:31;98467.88;;;3.39;100.00
11314;BME280;5712;48.858;9.206;2023-01-30T11:56:02;98468.78;;;3.38;100.00
11314;BME280;5712;48.858;9.206;2023-01-30T11:58:31;98465.16;;;3.41;100.00
11314;BME280;5712;48.858;9.206;2023-01-30T12:00:59;98460.16;;;3.35;100.00
11314;BME280;5712;48.858;9.206;2023-01-30T12:03:28;98467.88;;;3.39;100.00
11314;BME280;5712;48.858;9.206;2023-01-30T12:05:56;98449.41;;;3.44;100.00
11314;BME280;5712;48.858;9.206;2023-01-30T12:08:26;98453.75;;;3.43;100.00
11314;BME280;5712;48.858;9.206;2023-01-30T12:10:58;98458.94;;;3.45;100.00
11314;BME280;5712;48.858;9.206;2023-01-30T12:13:30;98450.78;;;3.54;100.00
11314;BME280;5712;48.858;9.206;2023-01-30T12:16:16;98438.50;;;3.56;100.00
11314;BME280;5712;48.858;9.206;2023-01-30T12:18:52;98449.94;;;3.53;100.00
11314;BME280;5712;48.858;9.206;2023-01-30T12:21:30;98447.25;;;3.55;100.00
11314;BME280;5712;48.858;9.206;2023-01-30T12:24:07;98456.84;;;3.54;100.00
11314;BME280;5712;48.858;9.206;2023-01-30T12:26:43;98455.16;;;3.53;100.00
11314;BME280;5712;48.858;9.206;2023-01-30T12:29:20;98445.69;;;3.49;100.00
11314;BME280;5712;48.858;9.206;2023-01-30T12:31:54;98447.56;;;3.46;100.00
11314;BME280;5712;48.858;9.206;2023-01-30T12:34:25;98457.28;;;3.42;100.00
11314;BME280;5712;48.858;9.206;2023-01-30T12:36:59;98444.34;;;3.39;100.00
11314;BME280;5712;48.858;9.206;2023-01-30T12:39:38;98458.38;;;3.37;100.00
11314;BME280;5712;48.858;9.206;2023-01-30T12:42:25;98457.63;;;3.33;100.00
11314;BME280;5712;48.858;9.206;2023-01-30T12:45:01;98469.78;;;3.34;100.00
11314;BME280;5712;48.858;9.206;2023-01-30T12:47:45;98462.72;;;3.36;100.00
11314;BME280;5712;48.858;9.206;2023-01-30T12:50:31;98474.00;;;3.38;100.00
11314;BME280;5712;48.858;9.206;2023-01-30T12:53:24;98482.59;;;3.42;100.00
11314;BME280;5712;48.858;9.206;2023-01-30T12:56:00;98494.00;;;3.39;100.00
11314;BME280;5712;48.858;9.206;2023-01-30T12:58:32;98488.53;;;3.45;100.00
11314;BME280;5712;48.858;9.206;2023-01-30T13:01:15;98490.25;;;3.46;100.00
11314;BME280;5712;48.858;9.206;2023-01-30T13:03:52;98488.41;;;3.48;100.00
11314;BME280;5712;48.858;9.206;2023-01-30T13:06:34;98462.28;;;3.48;100.00
11314;BME280;5712;48.858;9.206;2023-01-30T13:09:17;98466.50;;;3.52;100.00
11314;BME280;5712;48.858;9.206;2023-01-30T13:11:55;98461.06;;;3.58;100.00
11314;BME280;5712;48.858;9.206;2023-01-30T13:14:29;98463.56;;;3.61;100.00
11314;BME280;5712;48.858;9.206;2023-01-30T13:17:08;98465.91;;;3.69;100.00
11314;BME280;5712;48.858;9.206;2023-01-30T13:19:41;98464.56;;;3.80;100.00
11314;BME280;5712;48.858;9.206;2023-01-30T13:22:16;98445.94;;;3.89;100.00
11314;BME280;5712;48.858;9.206;2023-01-30T13:24:53;98441.09;;;4.02;100.00
11314;BME280;5712;48.858;9.206;2023-01-30T13:27:23;98449.31;;;4.14;100.00
11314;BME280;5712;48.858;9.206;2023-01-30T13:29:52;98445.56;;;4.21;100.00
11314;BME280;5712;48.858;9.206;2023-01-30T13:32:34;98443.47;;;4.29;100.00
11314;BME280;5712;48.858;9.206;2023-01-30T13:35:05;98451.91;;;4.37;100.00
11314;BME280;5712;48.858;9.206;2023-01-30T13:37:36;98461.41;;;4.40;100.00
11314;BME280;5712;48.858;9.206;2023-01-30T13:40:07;98464.94;;;4.39;100.00
11314;BME280;5712;48.858;9.206;2023-01-30T13:42:43;98465.72;;;4.41;100.00
11314;BME280;5712;48.858;9.206;2023-01-30T13:45:14;98472.03;;;4.35;100.00
11314;BME280;5712;48.858;9.206;2023-01-30T13:47:51;98490.25;;;4.38;100.00
11314;BME280;5712;48.858;9.206;2023-01-30T13:50:37;98489.44;;;4.36;100.00
11314;BME280;5712;48.858;9.206;2023-01-30T13:53:12;98487.66;;;4.37;100.00
11314;BME280;5712;48.858;9.206;2023-01-30T13:55:48;98492.06;;;4.36;100.00
11314;BME280;5712;48.858;9.206;2023-01-30T13:58:33;98503.50;;;4.34;100.00
11314;BME280;5712;48.858;9.206;2023-01-30T14:01:08;98502.13;;;4.24;100.00
11314;BME280;5712;48.858;9.206;2023-01-30T14:03:36;98499.75;;;4.18;100.00
11314;BME280;5712;48.858;9.206;2023-01-30T14:06:07;98497.28;;;4.15;100.00
11314;BME280;5712;48.858;9.206;2023-01-30T14:08:47;98485.22;;;4.11;100.00
11314;BME280;5712;48.858;9.206;2023-01-30T14:11:35;98493.47;;;4.00;100.00
11314;BME280;5712;48.858;9.206;2023-01-30T14:14:19;98501.47;;;3.96;100.00
11314;BME280;5712;48.858;9.206;2023-01-30T14:16:49;98502.47;;;3.93;100.00
11314;BME280;5712;48.858;9.206;2023-01-30T14:19:28;98500.63;;;3.95;100.00
11314;BME280;5712;48.858;9.206;2023-01-30T14:21:57;98507.69;;;3.93;100.00